Logo AVAMET
Benvolgut visitant, si us plau, ingressa Recuperar contrasenya
AVAMET paisatges

Inforatge Bellreguard

Dades diàries. Acumulats / Últims 30 dies disponibles

Data Temperatura (°C) Humitat rel. (%) Pressió rel. (hPa) Vent (km/h) Precipitació
Mínima Mitjana Màxima Amplitud
tèrmica
Mínima Mitjana Màxima Mínima Mitjana Màxima Predom. Mitjana Ràfega
màxima
Total
(mm)
Índex-n
Mínima Mitjana Màxima Mínima Mitjana Màxima n
0 a 1
P0 max
mm 5'
Dades mensuals acumulades fins l'últim dia disponible
02/2020 6,3 10,4 15,3 15,0 14,3 20,5 27,5 21,2 18 69 94 1.014 1.025 1.034   5,9 43,5 1,0
Dades anuals acumulades fins l'últim dia disponible
2020 3,8 9,1 15,3 13,2 12,1 18,2 27,5 23,7 18 72 96 1.012 1.025 1.034   6,7 75,6 194,4
Últims 30 dies disponibles
28-02-2020 13,1     17,9     23,3 10,2 31 48 78 1.018 1.020 1.022 W 6,4 30,6 0,0
27-02-2020 11,2     17,6     23,9 12,7 29 40 57 1.017 1.019 1.021 W 8,7 32,2 0,0
26-02-2020 13,7     18,1     22,7 9,0 25 43 63 1.016 1.018 1.020 W 9,7 35,4 0,0
25-02-2020 12,7     19,8     25,9 13,2 18 36 69 1.014 1.016 1.020 W 10,3 41,8 0,0
24-02-2020 8,7     14,4     21,3 12,6 35 60 81 1.020 1.025 1.031 SW 5,0 17,7 0,0
23-02-2020 6,3     12,9     20,4 14,1 44 71 89 1.030 1.033 1.034 SW 4,7 17,7 0,0
22-02-2020 7,2     12,6     18,9 11,7 47 73 88 1.030 1.032 1.034 SW 4,0 14,5 0,0
21-02-2020 7,7     11,5     15,8 8,1 68 82 90 1.027 1.030 1.031 SW 5,6 17,7 0,0
20-02-2020 7,8     12,1     17,4 9,6 65 79 88 1.024 1.026 1.029 SW 5,3 17,7 0,0
19-02-2020 10,4     13,1     15,6 5,2 70 85 91 1.029 1.031 1.033 E 3,2 19,3 0,0
18-02-2020 12,8     13,8     14,4 1,6 80 86 93 1.029 1.031 1.032 ESE 4,0 20,9 0,8
17-02-2020 8,4     15,9     25,8 17,4 38 73 94 1.022 1.025 1.029 W 6,0 29,0 0,2
16-02-2020 9,2     13,3     20,7 11,5 64 86 94 1.024 1.026 1.028 SW 2,9 14,5 0,0
15-02-2020 8,6     13,3     18,7 10,1 66 80 90 1.024 1.026 1.027 SW 3,7 16,1 0,0
14-02-2020 10,8     14,9     20,2 9,4 48 67 80 1.023 1.024 1.026 SW 6,1 19,3 0,0
13-02-2020 10,1     16,2     23,2 13,1 45 70 90 1.020 1.022 1.024 W 5,3 24,1 0,0
12-02-2020 11,1     14,3     18,7 7,6 63 79 88 1.023 1.024 1.025 WSW 3,5 20,9 0,0
11-02-2020 12,1     17,9     23,8 11,7 46 64 88 1.021 1.024 1.026 SW 7,1 29,0 0,0
10-02-2020 12,6     18,3     24,8 12,2 45 58 74 1.026 1.028 1.031 W 9,8 37,0 0,0
09-02-2020 7,9     12,6     16,1 8,2 71 82 91 1.027 1.029 1.032 WSW 3,2 16,1 0,0
08-02-2020 6,5     11,4     15,6 9,1 68 81 89 1.023 1.025 1.027 WSW 4,0 17,7 0,0
07-02-2020 7,9     10,9     16,4 8,5 59 78 87 1.023 1.025 1.026 SW 4,5 14,5 0,0
06-02-2020 6,8     10,2     14,3 7,5 70 82 89 1.025 1.027 1.029 SW 5,0 19,3 0,0
05-02-2020 9,2     12,4     15,8 6,6 64 79 89 1.027 1.029 1.031 E 3,9 19,3 0,0
04-02-2020 13,9     20,3     27,5 13,6 27 48 70 1.021 1.024 1.027 SW 7,7 29,0 0,0
03-02-2020 13,7     18,1     25,5 11,8 38 62 72 1.026 1.027 1.029 SW 7,6 20,9 0,0
02-02-2020 15,3     18,1     25,3 10,0 48 67 78 1.026 1.027 1.029 SW 7,7 29,0 0,0
01-02-2020 14,9     18,9     23,3 8,4 53 64 74 1.021 1.023 1.026 W 10,9 43,5 0,0
31-01-2020 15,2     17,4     20,7 5,5 53 61 66 1.021 1.022 1.024 O 16,2 41,8 0,0
30-01-2020 14,8     17,7     22,3 7,5 40 57 69 1.020 1.022 1.023 W 10,6 41,8 0,0
Últims 13 mesos disponibles
01/2020 3,8 8,0 15,2 11,5 12,1 16,1 22,3 18,5 54 75 94 1.015 1.025 1.032 SW 7,4 75,6 193,4
12/2019 6,0 11,2 19,7 14,4 13,2 18,4 26,3 20,3 42 69 90 1.002 1.019 1.033 W 8,6 91,7 192,8
11/2019 5,2 12,6 21,5 16,0 15,5 19,9 27,3 22,1 45 57 77 999 1.011 1.018 W 11,2 66,0 5,6
10/2019 12,1 16,4 20,8 20,4 16,0 25,0 32,1 20,0 45 69 86 1.008 1.016 1.022 SW 5,9 51,5 55,8
09/2019 14,6 20,3 23,2 24,0 23,6 27,9 35,6 21,0 48 76 91 1.010 1.017 1.023 S 6,5 66,7 72,0
08/2019 18,3 22,6 27,1 27,0 27,7 31,7 40,0 21,7 50 71 82 1.010 1.015 1.019 SSE 6,2 48,2 27,0
07/2019 20,8 23,0 26,3 27,2 28,0 31,6 37,6 16,8 42 68 80 1.005 1.013 1.021 SSE 6,7 58,0 0,4
06/2019 13,2 18,0 22,6 23,1 20,7 27,6 34,1 20,9 37 66 82 1.009 1.015 1.022 SSE 6,0 46,7 0,0
05/2019 9,6 14,9 22,2 19,5 18,5 24,3 31,6 22,0 35 67 81 1.006 1.015 1.024 SSE 6,4 51,9 5,6
04/2019 8,8 12,2 17,0 16,0 14,6 20,1 29,7 20,9 38 68 94 1.000 1.013 1.025 SSE 7,8 51,9 204,8
03/2019 6,2 9,5 16,0 14,8 14,1 19,9 28,6 22,4 30 61 93 1.011 1.023 1.030 SSE 5,8 61,1 55,4
02/2019 4,5 7,7 11,7 12,4 13,3 17,5 22,7 18,2 33 64 84 995 1.025 1.034 S 6,7 72,2 0,0
01/2019 1,4 7,4 14,4 11,6 11,4 16,9 21,2 19,8 40 59 80 1.002 1.019 1.031 SSO 8,1 61,1 2,4
Tots els anys disponibles
2019 1,4 14,7 27,1 18,9 11,4 23,4 40,0 38,6 30 66 94 995 1.017 1.034 SSE 7,2 91,7 621,8
Temperatura (°C)
Humitat relativa (%)
Velocitat del vent i ràfega màxima (km/h)
Direcció del vent (°)
Pressió (hPa)
Precipitació (mm)
Nota sobre les dades: s'avisa a l'usuari de la provisionalitat i no oficialitat d'aquestes dades
Logo AVAMET blanc
Web allotjada a Sollutia
Llicència de Creative CommonsLa web d'AVAMET i els seus continguts estan subjectes a una llicència de
Reconeixement - No Comercial - Compartir igual
Últimes estacions:  Forcall (Ajuntament Soci), Sant Joanet (Soci), Marines (Soci), Vilallonga - Serpis (Soci), Sorita (AVAMET), Gorga (Soci) - - -